createdAt,value
2018-05-12T00:00:46.784Z,64.41
2018-05-12T00:03:14.823Z,64.42
2018-05-12T00:05:42.569Z,64.26
2018-05-12T00:08:10.121Z,64.27
2018-05-12T00:10:37.797Z,64.03
2018-05-12T00:13:05.478Z,64.29
2018-05-12T00:15:33.071Z,64.19
2018-05-12T00:18:00.748Z,64.52
2018-05-12T00:20:31.119Z,64.81
2018-05-12T00:22:58.586Z,64.72
2018-05-12T00:25:26.134Z,64.59
2018-05-12T00:27:53.777Z,64.62
2018-05-12T00:30:21.373Z,64.63
2018-05-12T00:32:48.891Z,64.65
2018-05-12T00:35:16.425Z,64.69
2018-05-12T00:37:43.959Z,64.74
2018-05-12T00:40:11.513Z,64.76
2018-05-12T00:42:39.119Z,64.44
2018-05-12T00:45:06.584Z,64.71
2018-05-12T00:47:34.123Z,64.85
2018-05-12T00:50:01.679Z,65.04
2018-05-12T00:52:29.234Z,64.99
2018-05-12T00:57:46.898Z,65.30
2018-05-12T01:00:14.391Z,65.79
2018-05-12T01:02:41.902Z,66.18
2018-05-12T01:05:09.644Z,66.43
2018-05-12T01:07:37.273Z,66.58
2018-05-12T01:10:04.805Z,66.37
2018-05-12T01:12:32.361Z,66.37
2018-05-12T01:14:59.859Z,66.33
2018-05-12T01:17:27.379Z,66.25
2018-05-12T01:19:54.951Z,66.20
2018-05-12T01:22:22.647Z,66.13
2018-05-12T01:24:50.187Z,65.98
2018-05-12T01:27:17.711Z,65.93
2018-05-12T01:29:45.231Z,65.85
2018-05-12T01:32:12.812Z,65.80
2018-05-12T01:34:40.345Z,65.54
2018-05-12T01:37:07.933Z,65.93
2018-05-12T01:39:35.448Z,66.18
2018-05-12T01:42:02.974Z,66.15
2018-05-12T01:44:30.595Z,66.12
2018-05-12T01:46:58.196Z,66.24
2018-05-12T01:49:25.812Z,66.59
2018-05-12T01:51:53.400Z,66.91
2018-05-12T01:54:20.956Z,66.93
2018-05-12T01:56:48.449Z,67.06
2018-05-12T01:59:16.046Z,66.82
2018-05-12T02:01:43.607Z,66.97
2018-05-12T02:04:11.187Z,66.85
2018-05-12T02:06:38.846Z,67.18
2018-05-12T02:09:06.486Z,67.21
2018-05-12T02:11:34.022Z,67.39
2018-05-12T02:14:01.543Z,67.33
2018-05-12T02:16:29.164Z,67.34
2018-05-12T02:18:56.685Z,67.38
2018-05-12T02:21:24.252Z,67.70
2018-05-12T02:23:51.856Z,67.60
2018-05-12T02:26:19.441Z,67.43
2018-05-12T02:28:47.025Z,67.35
2018-05-12T02:31:14.621Z,67.29
2018-05-12T02:33:42.243Z,67.48
2018-05-12T02:36:09.828Z,67.34
2018-05-12T02:38:37.412Z,67.59
2018-05-12T02:41:05.022Z,67.61
2018-05-12T02:43:32.550Z,67.83
2018-05-12T02:46:00.123Z,68.16
2018-05-12T02:48:27.696Z,68.24
2018-05-12T02:50:55.337Z,68.23
2018-05-12T02:53:22.835Z,68.25
2018-05-12T02:55:50.577Z,68.52
2018-05-12T02:58:18.310Z,68.62
2018-05-12T03:00:45.852Z,68.39
2018-05-12T03:03:13.365Z,68.53
2018-05-12T03:05:40.909Z,68.51
2018-05-12T03:08:08.422Z,68.36
2018-05-12T03:10:36.040Z,68.41
2018-05-12T03:13:03.624Z,68.77
2018-05-12T03:15:31.150Z,68.92
2018-05-12T03:17:58.689Z,68.98
2018-05-12T03:20:26.240Z,68.87
2018-05-12T03:22:53.852Z,69.09
2018-05-12T03:25:21.879Z,68.98
2018-05-12T03:27:49.593Z,69.39
2018-05-12T03:30:17.277Z,69.49
2018-05-12T03:32:44.889Z,69.68
2018-05-12T03:35:12.595Z,69.93
2018-05-12T03:37:40.249Z,69.98
2018-05-12T03:40:07.846Z,69.82
2018-05-12T03:42:35.440Z,69.98
2018-05-12T03:45:03.065Z,70.12
2018-05-12T03:47:30.619Z,70.02
2018-05-12T03:49:58.149Z,69.86
2018-05-12T03:52:25.788Z,70.01
2018-05-12T03:54:53.310Z,70.10
2018-05-12T03:57:20.832Z,69.86
2018-05-12T03:59:48.409Z,69.72
2018-05-12T04:02:16.433Z,69.67
2018-05-12T04:04:58.571Z,69.65
2018-05-12T04:07:37.934Z,69.95
2018-05-12T04:10:17.246Z,69.88
2018-05-12T04:12:45.658Z,69.83
2018-05-12T04:15:13.192Z,69.74
2018-05-12T04:17:40.767Z,69.66
2018-05-12T04:20:08.417Z,69.80
2018-05-12T04:22:36.060Z,69.54
2018-05-12T04:25:03.737Z,69.38
2018-05-12T04:27:31.437Z,69.21
2018-05-12T04:29:58.982Z,69.15
2018-05-12T04:32:26.532Z,69.13
2018-05-12T04:34:54.067Z,69.17
2018-05-12T04:37:21.577Z,69.36
2018-05-12T04:39:49.143Z,69.54
2018-05-12T04:42:16.669Z,69.67
2018-05-12T04:44:45.137Z,69.49
2018-05-12T04:47:13.075Z,69.50
2018-05-12T04:49:40.696Z,69.50
2018-05-12T04:52:08.329Z,69.75
2018-05-12T04:54:35.956Z,69.91
2018-05-12T04:57:03.589Z,70.11
2018-05-12T04:59:31.194Z,70.09
2018-05-12T05:01:59.167Z,70.08
2018-05-12T05:04:26.739Z,69.68
2018-05-12T05:06:54.346Z,69.37
2018-05-12T05:09:21.959Z,69.44
2018-05-12T05:11:49.556Z,69.41
2018-05-12T05:14:17.207Z,69.28
2018-05-12T05:16:44.815Z,69.24
2018-05-12T05:19:12.447Z,69.00
2018-05-12T05:21:39.959Z,68.95
2018-05-12T05:24:07.515Z,68.70
2018-05-12T05:26:35.027Z,68.32
2018-05-12T05:29:02.551Z,68.29
2018-05-12T05:31:30.088Z,67.83
2018-05-12T05:33:57.618Z,67.66
2018-05-12T05:36:25.163Z,67.93
2018-05-12T05:38:52.717Z,67.92
2018-05-12T05:41:20.220Z,67.68
2018-05-12T05:43:47.752Z,67.61
2018-05-12T05:46:15.314Z,67.76
2018-05-12T05:48:42.911Z,67.63
2018-05-12T05:51:10.665Z,67.70
2018-05-12T05:53:38.332Z,67.57
2018-05-12T05:56:05.872Z,67.46
2018-05-12T05:58:33.617Z,67.48
2018-05-12T06:01:01.165Z,67.37
2018-05-12T06:03:28.709Z,67.21
2018-05-12T06:05:56.304Z,67.08
2018-05-12T06:08:23.825Z,67.12
2018-05-12T06:10:51.370Z,66.76
2018-05-12T06:13:18.904Z,66.71
2018-05-12T06:15:46.557Z,67.28
2018-05-12T06:18:14.163Z,66.79
2018-05-12T06:20:41.844Z,67.77
2018-05-12T06:23:09.604Z,68.62
2018-05-12T06:25:37.359Z,68.27
2018-05-12T06:28:05.014Z,68.36
2018-05-12T06:30:32.689Z,68.45
2018-05-12T06:33:00.360Z,68.22
2018-05-12T06:35:28.025Z,67.43
2018-05-12T06:37:55.841Z,66.81
2018-05-12T06:40:23.554Z,66.29
2018-05-12T06:42:51.216Z,66.22
2018-05-12T06:45:18.768Z,66.12
2018-05-12T06:47:47.163Z,66.54
2018-05-12T06:50:14.817Z,66.05
2018-05-12T06:52:43.479Z,67.04
2018-05-12T06:55:11.987Z,66.06
2018-05-12T06:57:39.741Z,66.46
2018-05-12T07:00:07.433Z,66.50
2018-05-12T07:02:35.054Z,65.08
2018-05-12T07:05:02.710Z,64.30
2018-05-12T07:07:30.377Z,64.42
2018-05-12T07:09:58.102Z,64.79
2018-05-12T07:12:25.895Z,64.73
2018-05-12T07:14:53.513Z,64.61
2018-05-12T07:17:21.134Z,64.17
2018-05-12T07:19:48.817Z,62.69
2018-05-12T07:24:50.426Z,63.03
2018-05-12T07:27:18.074Z,61.07
2018-05-12T07:29:45.723Z,60.87
2018-05-12T07:32:13.328Z,59.71
2018-05-12T07:34:42.276Z,59.75
2018-05-12T07:37:10.068Z,60.73
2018-05-12T07:39:37.763Z,60.43
2018-05-12T07:42:05.764Z,60.51
2018-05-12T07:44:33.499Z,62.16
2018-05-12T07:47:01.161Z,61.68
2018-05-12T07:49:28.855Z,60.62
2018-05-12T07:51:56.513Z,60.51
2018-05-12T07:54:24.225Z,60.15
2018-05-12T07:56:52.672Z,60.31
2018-05-12T07:59:20.315Z,59.32
2018-05-12T08:01:47.916Z,58.70
2018-05-12T08:04:17.098Z,58.43
2018-05-12T08:06:45.117Z,57.77
2018-05-12T08:09:14.637Z,57.45
2018-05-12T08:11:44.203Z,57.33
2018-05-12T08:14:11.764Z,57.26
2018-05-12T08:16:39.461Z,56.49
2018-05-12T08:19:08.981Z,56.62
2018-05-12T08:21:36.789Z,56.15
2018-05-12T08:24:06.229Z,56.02
2018-05-12T08:26:34.061Z,55.73
2018-05-12T08:29:01.589Z,54.89
2018-05-12T08:31:29.941Z,55.86
2018-05-12T08:33:59.640Z,55.17
2018-05-12T08:36:28.051Z,55.20
2018-05-12T08:38:56.390Z,54.68
2018-05-12T08:41:25.702Z,55.17
2018-05-12T08:43:53.612Z,57.99
2018-05-12T08:46:21.167Z,57.24
2018-05-12T08:48:49.394Z,56.54
2018-05-12T08:51:20.250Z,55.51
2018-05-12T08:53:47.908Z,54.65
2018-05-12T08:56:15.609Z,53.07
2018-05-12T08:58:43.353Z,52.50
2018-05-12T09:01:11.075Z,52.36
2018-05-12T09:03:39.468Z,51.81
2018-05-12T09:06:07.753Z,52.31
2018-05-12T09:08:35.342Z,52.51
2018-05-12T09:11:05.676Z,52.84
2018-05-12T09:13:34.102Z,51.53
2018-05-12T09:16:04.683Z,52.89
2018-05-12T09:18:33.255Z,54.31
2018-05-12T09:21:05.095Z,52.80
2018-05-12T09:23:32.782Z,52.09
2018-05-12T09:26:03.082Z,51.18
2018-05-12T09:28:31.010Z,50.48
2018-05-12T09:30:59.633Z,51.86
2018-05-12T09:33:30.328Z,51.27
2018-05-12T09:36:02.826Z,49.67
2018-05-12T09:38:33.734Z,48.89
2018-05-12T09:41:01.444Z,48.08
2018-05-12T09:43:41.128Z,47.18
2018-05-12T09:46:08.868Z,46.92
2018-05-12T09:48:37.357Z,45.77
2018-05-12T09:51:05.396Z,49.17
2018-05-12T09:53:33.120Z,48.29
2018-05-12T09:56:01.783Z,46.69
2018-05-12T09:58:38.251Z,45.97
2018-05-12T10:01:06.027Z,46.51
2018-05-12T10:03:40.396Z,45.90
2018-05-12T10:06:08.399Z,45.60
2018-05-12T10:08:37.157Z,44.19
2018-05-12T10:11:05.795Z,44.17
2018-05-12T10:13:41.396Z,43.64
2018-05-12T10:16:15.389Z,43.05
2018-05-12T10:18:43.000Z,44.82
2018-05-12T10:21:13.612Z,44.76
2018-05-12T10:23:44.526Z,45.16
2018-05-12T10:29:30.035Z,44.66
2018-05-12T10:32:04.799Z,42.75
2018-05-12T10:34:32.622Z,43.32
2018-05-12T10:37:05.255Z,43.90
2018-05-12T10:39:37.484Z,44.58
2018-05-12T10:42:06.351Z,44.97
2018-05-12T10:44:43.308Z,43.34
2018-05-12T10:47:17.204Z,44.28
2018-05-12T10:49:46.526Z,43.37
2018-05-12T10:52:17.844Z,44.98
2018-05-12T10:54:46.049Z,44.48
2018-05-12T10:57:31.972Z,43.36
2018-05-12T11:02:54.710Z,45.36
2018-05-12T11:05:22.752Z,44.92
2018-05-12T11:08:04.304Z,42.61
2018-05-12T11:10:34.859Z,42.32
2018-05-12T11:13:03.473Z,43.35
2018-05-12T11:15:36.780Z,42.97
2018-05-12T11:18:08.843Z,41.51
2018-05-12T11:20:38.456Z,41.72
2018-05-12T11:23:08.150Z,41.18
2018-05-12T11:25:43.599Z,41.18
2018-05-12T11:28:15.752Z,40.21
2018-05-12T11:30:43.471Z,40.99
2018-05-12T11:33:14.094Z,39.97
2018-05-12T11:35:46.569Z,40.91
2018-05-12T11:38:14.177Z,41.74
2018-05-12T11:40:41.954Z,41.06
2018-05-12T11:43:12.639Z,39.83
2018-05-12T11:45:40.204Z,39.68
2018-05-12T11:48:27.786Z,36.98
2018-05-12T11:50:57.599Z,36.39
2018-05-12T11:56:21.018Z,35.95
2018-05-12T11:58:48.624Z,35.29
2018-05-12T12:01:17.730Z,35.26
2018-05-12T12:03:46.361Z,36.00
2018-05-12T12:06:22.766Z,36.09
2018-05-12T12:08:55.548Z,36.77
2018-05-12T12:11:25.960Z,36.61
2018-05-12T12:13:55.584Z,36.70
2018-05-12T12:16:30.151Z,36.73
2018-05-12T12:21:48.300Z,35.92
2018-05-12T12:30:13.955Z,33.98
2018-05-12T12:32:53.627Z,33.96
2018-05-12T12:35:46.541Z,34.13
2018-05-12T12:38:25.291Z,33.86
2018-05-12T12:54:25.992Z,37.84
2018-05-12T12:56:55.365Z,37.91
2018-05-12T12:59:23.299Z,38.10
2018-05-12T13:01:53.322Z,36.64
2018-05-12T13:04:20.884Z,36.53
2018-05-12T13:06:50.011Z,37.12
2018-05-12T13:09:20.066Z,37.48
2018-05-12T13:11:52.793Z,38.40
2018-05-12T13:14:24.234Z,38.12
2018-05-12T13:17:03.532Z,36.94
2018-05-12T13:19:40.801Z,37.73
2018-05-12T13:22:11.301Z,36.79
2018-05-12T13:24:38.969Z,37.27
2018-05-12T13:27:16.413Z,37.10
2018-05-12T13:29:45.426Z,36.20
2018-05-12T13:32:26.127Z,35.78
2018-05-12T13:34:54.547Z,36.48
2018-05-12T13:37:23.312Z,37.22
2018-05-12T13:39:52.737Z,36.91
2018-05-12T13:42:20.699Z,37.50
2018-05-12T13:44:48.356Z,37.72
2018-05-12T13:47:17.173Z,37.34
2018-05-12T13:49:44.691Z,38.25
2018-05-12T13:52:12.272Z,39.82
2018-05-12T13:54:39.822Z,40.71
2018-05-12T13:57:08.235Z,41.89
2018-05-12T13:59:36.071Z,42.75
2018-05-12T14:02:04.846Z,42.94
2018-05-12T14:04:32.387Z,42.87
2018-05-12T14:06:59.965Z,43.33
2018-05-12T14:09:33.573Z,44.56
2018-05-12T14:12:01.459Z,43.95
2018-05-12T14:14:30.416Z,43.32
2018-05-12T14:16:58.946Z,43.97
2018-05-12T14:19:27.253Z,43.66
2018-05-12T14:21:54.972Z,43.39
2018-05-12T14:24:22.670Z,43.47
2018-05-12T14:26:51.513Z,44.05
2018-05-12T14:29:21.290Z,44.67
2018-05-12T14:31:49.484Z,45.30
2018-05-12T14:34:17.138Z,45.64
2018-05-12T14:36:44.930Z,45.54
2018-05-12T14:39:14.160Z,45.27
2018-05-12T14:41:42.634Z,44.96
2018-05-12T14:44:10.305Z,45.52
2018-05-12T14:46:38.085Z,46.59
2018-05-12T14:49:05.856Z,47.41
2018-05-12T14:51:36.014Z,47.42
2018-05-12T14:54:05.227Z,47.32
2018-05-12T14:56:35.009Z,47.12
2018-05-12T14:59:03.668Z,46.60
2018-05-12T15:01:31.472Z,47.04
2018-05-12T15:03:59.549Z,46.71
2018-05-12T15:06:28.504Z,46.36
2018-05-12T15:08:56.235Z,45.86
2018-05-12T15:11:25.276Z,45.49
2018-05-12T15:13:52.984Z,45.53
2018-05-12T15:16:21.445Z,45.33
2018-05-12T15:18:50.454Z,45.15
2018-05-12T15:21:20.829Z,45.78
2018-05-12T15:23:48.701Z,45.86
2018-05-12T15:26:16.352Z,45.59
2018-05-12T15:28:44.853Z,45.55
2018-05-12T15:31:14.428Z,45.78
2018-05-12T15:33:45.791Z,45.58
2018-05-12T15:36:13.628Z,45.39
2018-05-12T15:38:42.576Z,45.09
2018-05-12T15:43:57.727Z,45.07
2018-05-12T15:46:27.183Z,45.35
2018-05-12T15:48:57.281Z,45.64
2018-05-12T15:51:25.830Z,45.92
2018-05-12T15:53:53.644Z,46.43
2018-05-12T15:56:22.362Z,46.92
2018-05-12T15:58:51.288Z,47.06
2018-05-12T16:03:53.144Z,49.43
2018-05-12T16:06:22.719Z,49.82
2018-05-12T16:08:51.120Z,50.05
2018-05-12T16:11:20.153Z,51.08
2018-05-12T16:13:47.774Z,51.43
2018-05-12T16:16:15.385Z,51.62
2018-05-12T16:18:43.009Z,51.30
2018-05-12T16:21:13.618Z,51.00
2018-05-12T16:23:41.386Z,50.76
2018-05-12T16:26:09.065Z,52.86
2018-05-12T16:28:36.654Z,52.43
2018-05-12T16:31:05.092Z,51.62
2018-05-12T16:33:33.896Z,51.06
2018-05-12T16:36:03.545Z,50.97
2018-05-12T16:38:33.427Z,50.63
2018-05-12T16:41:02.880Z,50.68
2018-05-12T16:43:33.551Z,50.94
2018-05-12T16:46:01.315Z,50.86
2018-05-12T16:48:29.009Z,51.08
2018-05-12T16:50:57.576Z,50.13
2018-05-12T16:53:25.063Z,49.86
2018-05-12T16:55:52.646Z,49.35
2018-05-12T16:58:21.346Z,49.15
2018-05-12T17:00:49.330Z,49.25
2018-05-12T17:03:17.642Z,49.42
2018-05-12T17:05:46.077Z,49.03
2018-05-12T17:08:15.194Z,48.72
2018-05-12T17:10:43.074Z,48.59
2018-05-12T17:13:13.480Z,48.39
2018-05-12T17:15:44.750Z,48.71
2018-05-12T17:18:14.101Z,48.59
2018-05-12T17:20:41.815Z,48.57
2018-05-12T17:23:15.751Z,48.72
2018-05-12T17:25:43.477Z,49.09
2018-05-12T17:28:11.786Z,49.49
2018-05-12T17:30:40.240Z,49.56
2018-05-12T17:33:09.896Z,49.64
2018-05-12T17:35:37.668Z,49.83
2018-05-12T17:38:05.322Z,49.77
2018-05-12T17:40:32.992Z,50.03
2018-05-12T17:43:00.508Z,50.23
2018-05-12T17:45:28.135Z,50.32
2018-05-12T17:47:55.797Z,50.46
2018-05-12T17:50:23.525Z,50.63
2018-05-12T17:52:51.239Z,51.18
2018-05-12T17:55:19.113Z,51.81
2018-05-12T17:57:48.008Z,52.15
2018-05-12T18:00:15.676Z,52.56
2018-05-12T18:02:45.317Z,52.74
2018-05-12T18:05:14.319Z,52.89
2018-05-12T18:07:42.059Z,52.94
2018-05-12T18:10:10.563Z,52.98
2018-05-12T18:12:38.254Z,52.89
2018-05-12T18:15:06.056Z,53.11
2018-05-12T18:17:38.344Z,53.15
2018-05-12T18:20:06.083Z,53.29
2018-05-12T18:22:33.757Z,53.39
2018-05-12T18:25:01.517Z,53.46
2018-05-12T18:27:30.921Z,53.52
2018-05-12T18:29:58.584Z,53.83
2018-05-12T18:32:26.307Z,54.07
2018-05-12T18:34:54.893Z,54.29
2018-05-12T18:37:22.603Z,54.67
2018-05-12T18:39:50.345Z,54.77
2018-05-12T18:42:18.012Z,54.94
2018-05-12T18:44:45.702Z,54.88
2018-05-12T18:47:14.221Z,55.52
2018-05-12T18:49:42.625Z,55.99
2018-05-12T18:52:10.216Z,56.21
2018-05-12T18:54:37.813Z,56.39
2018-05-12T18:57:05.389Z,56.86
2018-05-12T18:59:35.576Z,56.81
2018-05-12T19:02:03.160Z,56.89
2018-05-12T19:04:31.636Z,57.13
2018-05-12T19:07:00.047Z,57.15
2018-05-12T19:09:27.683Z,57.53
2018-05-12T19:11:55.409Z,57.74
2018-05-12T19:14:23.215Z,57.67
2018-05-12T19:16:50.963Z,57.78
2018-05-12T19:19:19.163Z,57.77
2018-05-12T19:21:47.511Z,57.78
2018-05-12T19:24:15.156Z,57.84
2018-05-12T19:26:42.868Z,58.39
2018-05-12T19:29:10.829Z,58.67
2018-05-12T19:31:38.638Z,58.57
2018-05-12T19:34:06.395Z,58.65
2018-05-12T19:41:57.731Z,59.35
2018-05-12T19:44:25.315Z,59.63
2018-05-12T19:46:52.913Z,59.67
2018-05-12T19:49:20.538Z,59.25
2018-05-12T19:51:48.181Z,59.68
2018-05-12T19:54:15.842Z,59.68
2018-05-12T19:56:43.592Z,60.02
2018-05-12T19:59:11.274Z,60.10
2018-05-12T20:01:38.917Z,59.97
2018-05-12T20:04:06.482Z,60.20
2018-05-12T20:06:34.162Z,60.45
2018-05-12T20:09:01.902Z,60.50
2018-05-12T20:11:29.735Z,60.49
2018-05-12T20:13:57.450Z,60.36
2018-05-12T20:16:25.109Z,60.07
2018-05-12T20:18:52.716Z,60.53
2018-05-12T20:21:20.437Z,60.86
2018-05-12T20:23:48.140Z,61.09
2018-05-12T20:26:15.858Z,61.01
2018-05-12T20:28:44.363Z,61.32
2018-05-12T20:31:12.395Z,61.40
2018-05-12T20:33:40.021Z,61.46
2018-05-12T20:36:07.811Z,61.58
2018-05-12T20:38:35.518Z,61.75
2018-05-12T20:41:03.160Z,61.89
2018-05-12T20:43:30.997Z,61.90
2018-05-12T20:45:58.594Z,62.18
2018-05-12T20:48:26.109Z,62.35
2018-05-12T20:50:53.667Z,62.55
2018-05-12T20:53:21.194Z,62.58
2018-05-12T20:55:48.897Z,63.00
2018-05-12T20:58:16.604Z,63.12
2018-05-12T21:00:44.208Z,63.05
2018-05-12T21:03:11.831Z,63.52
2018-05-12T21:05:39.949Z,63.62
2018-05-12T21:08:08.679Z,63.70
2018-05-12T21:10:36.357Z,63.89
2018-05-12T21:13:04.022Z,64.15
2018-05-12T21:15:32.133Z,64.08
2018-05-12T21:17:59.757Z,64.21
2018-05-12T21:20:27.605Z,64.33
2018-05-12T21:22:55.255Z,64.22
2018-05-12T21:25:22.828Z,64.35
2018-05-12T21:27:50.452Z,64.66
2018-05-12T21:32:51.821Z,64.91
2018-05-12T21:35:20.383Z,65.33
2018-05-12T21:37:48.057Z,65.06
2018-05-12T21:40:15.592Z,64.92
2018-05-12T21:42:43.188Z,65.64
2018-05-12T21:45:10.858Z,66.13
2018-05-12T21:47:38.617Z,66.30
2018-05-12T21:50:06.416Z,66.54
2018-05-12T21:52:33.944Z,66.63
2018-05-12T21:55:01.654Z,66.65
2018-05-12T21:57:29.286Z,66.75
2018-05-12T21:59:56.909Z,66.69
2018-05-12T22:02:24.710Z,66.50
2018-05-12T22:04:52.284Z,66.39
2018-05-12T22:07:20.085Z,66.39
2018-05-12T22:09:47.754Z,66.62
2018-05-12T22:12:16.285Z,66.65
2018-05-12T22:14:43.904Z,66.69
2018-05-12T22:17:12.817Z,66.40
2018-05-12T22:19:40.496Z,66.37
2018-05-12T22:22:08.231Z,66.35
2018-05-12T22:24:35.832Z,66.41
2018-05-12T22:27:14.340Z,66.41
2018-05-12T22:29:42.192Z,66.38
2018-05-12T22:32:09.798Z,66.59
2018-05-12T22:34:37.510Z,66.68
2018-05-12T22:37:05.156Z,66.65
2018-05-12T22:39:34.053Z,66.98
2018-05-12T22:42:01.752Z,66.88
2018-05-12T22:44:29.425Z,66.73
2018-05-12T22:46:56.969Z,66.99
2018-05-12T22:49:24.511Z,66.73
2018-05-12T22:51:52.029Z,67.22
2018-05-12T22:54:19.772Z,67.63
2018-05-12T22:56:47.400Z,68.28
2018-05-12T22:59:14.997Z,68.17
2018-05-12T23:01:42.554Z,67.96
2018-05-12T23:04:10.145Z,67.79
2018-05-12T23:06:37.738Z,67.79
2018-05-12T23:09:05.388Z,67.61
2018-05-12T23:11:33.021Z,67.99
2018-05-12T23:14:00.708Z,68.02
2018-05-12T23:16:28.372Z,67.82
2018-05-12T23:18:56.043Z,68.00
2018-05-12T23:21:23.691Z,68.16
2018-05-12T23:23:51.221Z,68.56
2018-05-12T23:26:18.875Z,68.76
2018-05-12T23:28:46.744Z,69.17
2018-05-12T23:31:14.299Z,69.27
2018-05-12T23:33:41.972Z,69.25
2018-05-12T23:36:09.634Z,69.06
2018-05-12T23:38:37.263Z,69.15
2018-05-12T23:41:04.984Z,69.08
2018-05-12T23:43:32.699Z,69.11
2018-05-12T23:46:00.319Z,69.29
2018-05-12T23:48:27.961Z,69.23
2018-05-12T23:50:55.588Z,69.22
2018-05-12T23:53:23.191Z,69.04
2018-05-12T23:55:50.857Z,68.87
2018-05-12T23:58:18.521Z,68.77
